Time;durP1;ratioP1;P1;durP2;ratioP2;P2;SDS_P1;SDS_P2;PMS_P1;PMS_P2;Temp;Humidity;BMP_temperature;BMP_pressure;BME280_temperature;BME280_humidity;BME280_pressure;Samples;Min_cycle;Max_cycle;Signal;HPM_P1;HPM_P2
2023/04/01 00:00:54;;;;;;;25.90;12.02;;;;;;;;;;4969409;28;99032;-76
2023/04/01 00:03:20;;;;;;;30.75;14.25;;;;;;;;;;4970329;28;98395;-76
2023/04/01 00:05:47;;;;;;;30.48;14.10;;;;;;;;;;4970458;28;99230;-76
2023/04/01 00:08:14;;;;;;;34.22;13.85;;;;;;;;;;4973321;28;99346;-76
2023/04/01 00:10:40;;;;;;;37.40;13.77;;;;;;;;;;4970409;28;99555;-76
2023/04/01 00:13:07;;;;;;;30.38;13.55;;;;;;;;;;4969814;28;100037;-76
2023/04/01 00:15:33;;;;;;;26.80;13.63;;;;;;;;;;4969741;28;98447;-76
2023/04/01 00:18:00;;;;;;;39.08;14.43;;;;;;;;;;4969899;28;100052;-76
2023/04/01 00:20:27;;;;;;;34.65;13.80;;;;;;;;;;4970362;28;99852;-76
2023/04/01 00:22:54;;;;;;;35.60;13.90;;;;;;;;;;4969725;28;98419;-76
2023/04/01 00:25:21;;;;;;;32.03;13.18;;;;;;;;;;4970798;28;98127;-76
2023/04/01 00:27:47;;;;;;;34.65;13.80;;;;;;;;;;4968969;28;100210;-76
2023/04/01 00:30:14;;;;;;;36.58;14.65;;;;;;;;;;4973682;28;98194;-76
2023/04/01 00:32:40;;;;;;;42.22;16.40;;;;;;;;;;4970069;28;99281;-76
2023/04/01 00:35:07;;;;;;;34.80;16.20;;;;;;;;;;4969719;28;98897;-76
2023/04/01 00:37:37;;;;;;;34.72;16.52;;;;;;;;;;4968974;28;99730;-76
2023/04/01 00:40:05;;;;;;;34.42;15.25;;;;;;;;;;4969091;28;98944;-76
2023/04/01 00:42:31;;;;;;;34.00;16.05;;;;;;;;;;4969218;28;98035;-76
2023/04/01 00:44:58;;;;;;;39.63;13.60;;;;;;;;;;4969591;28;98335;-76
2023/04/01 00:47:25;;;;;;;28.67;10.25;;;;;;;;;;4968114;28;99121;-76
2023/04/01 00:49:53;;;;;;;18.35;8.13;;;;;;;;;;4967961;28;98240;-76
2023/04/01 00:52:22;;;;;;;23.00;9.95;;;;;;;;;;4972652;28;99627;-76
2023/04/01 00:54:52;;;;;;;19.30;8.82;;;;;;;;;;4968081;28;98247;-76
2023/04/01 00:57:21;;;;;;;23.95;9.10;;;;;;;;;;4967551;28;98709;-76
2023/04/01 00:59:49;;;;;;;29.48;10.60;;;;;;;;;;4967421;28;101634;-77
2023/04/01 01:02:17;;;;;;;37.05;12.77;;;;;;;;;;4967792;28;98334;-77
2023/04/01 01:04:43;;;;;;;27.92;9.82;;;;;;;;;;4969508;28;99391;-77
2023/04/01 01:07:22;;;;;;;29.80;11.88;;;;;;;;;;4971076;28;98784;-76
2023/04/01 01:09:54;;;;;;;28.13;12.18;;;;;;;;;;4973169;28;98103;-77
2023/04/01 01:12:24;;;;;;;30.10;11.65;;;;;;;;;;4974001;28;98105;-77
2023/04/01 01:15:09;;;;;;;18.95;10.73;;;;;;;;;;4989084;28;97972;-77
2023/04/01 01:17:45;;;;;;;26.00;11.70;;;;;;;;;;4979334;28;98487;-77
2023/04/01 01:20:34;;;;;;;26.20;10.40;;;;;;;;;;4971488;28;100845;-77
2023/04/01 01:23:19;;;;;;;21.63;10.77;;;;;;;;;;4971648;28;98230;-76
2023/04/01 01:25:52;;;;;;;29.33;12.50;;;;;;;;;;4968544;28;98284;-76
2023/04/01 01:28:24;;;;;;;27.50;10.82;;;;;;;;;;4967186;28;99415;-77
2023/04/01 01:30:59;;;;;;;25.65;11.02;;;;;;;;;;4966890;28;98191;-77
2023/04/01 01:33:30;;;;;;;29.27;12.63;;;;;;;;;;4968642;28;98382;-77
2023/04/01 01:35:59;;;;;;;34.10;14.32;;;;;;;;;;4972663;28;99155;-77
2023/04/01 01:38:27;;;;;;;36.65;14.10;;;;;;;;;;4968041;28;98634;-77
2023/04/01 01:41:04;;;;;;;23.15;11.07;;;;;;;;;;4967350;28;100870;-76
2023/04/01 01:43:40;;;;;;;17.35;8.13;;;;;;;;;;4967577;28;98362;-77
2023/04/01 01:46:11;;;;;;;16.70;7.65;;;;;;;;;;4968026;28;98328;-77
2023/04/01 01:48:40;;;;;;;15.05;7.07;;;;;;;;;;4967273;28;100662;-77
2023/04/01 01:51:06;;;;;;;11.50;6.22;;;;;;;;;;4966879;28;98276;-76
2023/04/01 01:53:33;;;;;;;11.85;6.32;;;;;;;;;;4967355;28;98584;-76
2023/04/01 01:55:59;;;;;;;13.57;7.35;;;;;;;;;;4966923;28;101304;-76
2023/04/01 01:58:40;;;;;;;9.80;6.88;;;;;;;;;;4970772;28;98871;-76
2023/04/01 02:01:14;;;;;;;10.63;5.68;;;;;;;;;;4966323;28;100093;-76
2023/04/01 02:03:41;;;;;;;;;;;;;;;;;;4967784;28;98071;-77
2023/04/01 02:06:10;;;;;;;9.02;4.78;;;;;;;;;;4966332;28;127843;-76
2023/04/01 02:08:40;;;;;;;6.63;5.00;;;;;;;;;;4966328;28;101684;-76
2023/04/01 02:11:08;;;;;;;6.18;4.60;;;;;;;;;;4967102;28;98299;-76
2023/04/01 02:13:51;;;;;;;8.98;5.95;;;;;;;;;;4966460;28;100310;-76
2023/04/01 02:16:23;;;;;;;10.13;5.40;;;;;;;;;;4966986;28;99303;-76
2023/04/01 02:18:54;;;;;;;12.20;5.35;;;;;;;;;;4966023;28;98366;-76
2023/04/01 02:21:23;;;;;;;6.63;5.30;;;;;;;;;;4969430;28;100976;-77
2023/04/01 02:23:52;;;;;;;8.05;4.72;;;;;;;;;;4966900;28;98757;-76
2023/04/01 02:26:19;;;;;;;12.20;6.32;;;;;;;;;;4967042;28;99613;-76
2023/04/01 02:28:47;;;;;;;8.73;4.93;;;;;;;;;;4965731;28;101366;-77
2023/04/01 02:31:14;;;;;;;5.80;5.00;;;;;;;;;;4966826;28;98300;-77
2023/04/01 02:33:41;;;;;;;8.30;5.32;;;;;;;;;;4966950;28;100423;-77
2023/04/01 02:36:12;;;;;;;9.45;4.72;;;;;;;;;;4967664;28;98992;-77
2023/04/01 02:38:39;;;;;;;9.82;5.40;;;;;;;;;;4966914;28;98430;-76
2023/04/01 02:41:06;;;;;;;9.70;5.57;;;;;;;;;;4966651;28;100488;-77
2023/04/01 02:43:32;;;;;;;9.13;5.28;;;;;;;;;;4968497;28;100051;-76
2023/04/01 02:45:59;;;;;;;11.50;5.22;;;;;;;;;;4967788;28;98529;-76
2023/04/01 02:48:25;;;;;;;9.25;5.00;;;;;;;;;;4966484;28;102158;-76
2023/04/01 02:50:52;;;;;;;9.15;5.18;;;;;;;;;;4966206;28;98292;-76
2023/04/01 02:53:18;;;;;;;8.38;4.93;;;;;;;;;;4968130;28;98420;-76
2023/04/01 02:55:45;;;;;;;11.27;5.50;;;;;;;;;;4965357;28;101556;-76
2023/04/01 02:58:11;;;;;;;8.85;5.25;;;;;;;;;;4968092;28;98225;-76
2023/04/01 03:00:38;;;;;;;7.18;4.53;;;;;;;;;;4966582;28;100762;-76
2023/04/01 03:03:04;;;;;;;5.97;4.88;;;;;;;;;;4966737;28;99002;-77
2023/04/01 03:05:31;;;;;;;5.43;4.38;;;;;;;;;;4971270;28;98179;-76
2023/04/01 03:07:57;;;;;;;8.27;4.45;;;;;;;;;;4966750;28;98869;-77
2023/04/01 03:10:24;;;;;;;7.28;4.40;;;;;;;;;;4967271;28;98445;-77
2023/04/01 03:12:50;;;;;;;12.68;4.75;;;;;;;;;;4968745;28;99646;-76
2023/04/01 03:15:17;;;;;;;4.53;3.60;;;;;;;;;;4970099;28;101681;-77
2023/04/01 03:17:43;;;;;;;7.40;3.55;;;;;;;;;;4970323;28;98160;-77
2023/04/01 03:20:11;;;;;;;6.65;3.90;;;;;;;;;;4969965;28;101384;-77
2023/04/01 03:22:37;;;;;;;4.97;3.97;;;;;;;;;;4969508;28;101343;-77
2023/04/01 03:25:07;;;;;;;6.72;4.72;;;;;;;;;;4972159;28;98440;-77
2023/04/01 03:27:37;;;;;;;8.80;5.28;;;;;;;;;;4969444;28;101582;-76
2023/04/01 03:30:04;;;;;;;7.60;6.05;;;;;;;;;;4969491;28;98300;-76
2023/04/01 03:32:36;;;;;;;12.70;7.95;;;;;;;;;;4967992;28;100671;-76
2023/04/01 03:35:02;;;;;;;12.90;8.35;;;;;;;;;;4968972;28;101197;-76
2023/04/01 03:37:29;;;;;;;11.98;9.77;;;;;;;;;;4971062;28;98213;-76
2023/04/01 03:39:55;;;;;;;14.35;10.35;;;;;;;;;;4968227;28;100485;-76
2023/04/01 03:42:22;;;;;;;13.00;9.60;;;;;;;;;;4971172;28;100357;-76
2023/04/01 03:44:48;;;;;;;16.55;10.65;;;;;;;;;;4968333;28;98471;-76
2023/04/01 03:47:15;;;;;;;17.75;11.57;;;;;;;;;;4988958;28;100616;-76
2023/04/01 03:49:41;;;;;;;17.30;11.93;;;;;;;;;;4985760;28;98251;-76
2023/04/01 03:52:09;;;;;;;21.92;13.95;;;;;;;;;;4984992;28;98563;-76
2023/04/01 03:54:36;;;;;;;23.25;14.63;;;;;;;;;;4968980;28;101531;-76
2023/04/01 03:57:02;;;;;;;23.13;15.40;;;;;;;;;;4968248;28;98399;-77
2023/04/01 03:59:29;;;;;;;28.63;16.92;;;;;;;;;;4968122;28;98524;-76
2023/04/01 04:01:56;;;;;;;26.52;17.75;;;;;;;;;;4985004;28;100994;-76
2023/04/01 04:04:22;;;;;;;32.97;17.02;;;;;;;;;;5002181;28;98154;-76
2023/04/01 04:06:49;;;;;;;35.92;17.10;;;;;;;;;;4968026;28;100988;-76
2023/04/01 04:09:15;;;;;;;36.75;18.80;;;;;;;;;;4971974;28;98940;-76
2023/04/01 04:11:42;;;;;;;28.65;17.38;;;;;;;;;;4985548;28;100674;-77
2023/04/01 04:14:08;;;;;;;30.00;17.02;;;;;;;;;;4968546;28;100885;-76
2023/04/01 04:16:38;;;;;;;32.13;18.13;;;;;;;;;;4985287;28;98304;-77
2023/04/01 04:19:05;;;;;;;38.17;19.00;;;;;;;;;;4968461;28;100761;-76
2023/04/01 04:21:32;;;;;;;38.17;19.60;;;;;;;;;;4966601;28;100988;-76
2023/04/01 04:24:00;;;;;;;48.85;20.98;;;;;;;;;;4984133;28;98266;-75
2023/04/01 04:26:30;;;;;;;38.58;19.63;;;;;;;;;;4984987;28;98459;-76
2023/04/01 04:28:59;;;;;;;31.95;18.15;;;;;;;;;;4967503;28;98904;-76
2023/04/01 04:31:26;;;;;;;30.98;16.10;;;;;;;;;;4971799;28;98379;-76
2023/04/01 04:33:55;;;;;;;30.17;16.60;;;;;;;;;;4984613;28;98884;-76
2023/04/01 04:36:21;;;;;;;21.95;12.48;;;;;;;;;;4967992;28;98379;-76
2023/04/01 04:38:50;;;;;;;31.33;15.07;;;;;;;;;;4985068;28;99776;-76
2023/04/01 04:41:17;;;;;;;22.90;13.00;;;;;;;;;;4967621;28;101379;-76
2023/04/01 04:43:52;;;;;;;27.10;12.95;;;;;;;;;;4968225;28;98727;-76
2023/04/01 04:46:19;;;;;;;30.50;14.70;;;;;;;;;;4968917;28;99285;-76
2023/04/01 04:48:48;;;;;;;24.05;13.65;;;;;;;;;;4967099;28;99970;-77
2023/04/01 04:51:15;;;;;;;21.65;13.07;;;;;;;;;;4967999;28;98277;-76
2023/04/01 04:53:42;;;;;;;28.30;14.27;;;;;;;;;;4971579;28;100561;-76
2023/04/01 04:56:09;;;;;;;29.08;12.77;;;;;;;;;;4967473;28;98432;-77
2023/04/01 04:58:45;;;;;;;24.13;11.95;;;;;;;;;;4967324;28;101073;-77
2023/04/01 05:01:17;;;;;;;30.33;11.82;;;;;;;;;;4967955;28;101369;-78
2023/04/01 05:03:43;;;;;;;19.75;11.05;;;;;;;;;;4967249;28;98408;-78
2023/04/01 05:06:11;;;;;;;23.42;10.77;;;;;;;;;;4984548;28;98699;-76
2023/04/01 05:08:39;;;;;;;24.05;11.20;;;;;;;;;;4984134;28;101648;-77
2023/04/01 05:11:12;;;;;;;16.50;10.18;;;;;;;;;;4967460;28;98254;-77
2023/04/01 05:13:41;;;;;;;19.55;11.13;;;;;;;;;;4967848;28;98442;-77
2023/04/01 05:16:09;;;;;;;21.25;11.65;;;;;;;;;;4986825;28;101802;-78
2023/04/01 05:18:36;;;;;;;20.40;11.60;;;;;;;;;;4967767;28;101023;-77
2023/04/01 05:21:02;;;;;;;20.83;12.02;;;;;;;;;;4983701;28;101773;-78
2023/04/01 05:23:30;;;;;;;22.55;12.32;;;;;;;;;;4983091;28;98092;-78
2023/04/01 05:25:57;;;;;;;27.50;12.98;;;;;;;;;;4968974;28;99553;-78
2023/04/01 05:28:23;;;;;;;15.77;10.40;;;;;;;;;;4967391;28;100158;-77
2023/04/01 05:30:50;;;;;;;18.77;10.45;;;;;;;;;;4966397;28;98491;-78
2023/04/01 05:33:22;;;;;;;19.97;12.63;;;;;;;;;;4984434;28;101443;-78
2023/04/01 05:35:49;;;;;;;22.27;12.90;;;;;;;;;;4968899;28;101322;-77
2023/04/01 05:38:15;;;;;;;15.95;10.15;;;;;;;;;;4983157;28;99544;-77
2023/04/01 05:40:42;;;;;;;17.98;10.65;;;;;;;;;;4967339;28;101753;-77
2023/04/01 05:43:08;;;;;;;20.65;11.02;;;;;;;;;;4967562;28;98185;-77
2023/04/01 05:45:35;;;;;;;21.45;10.88;;;;;;;;;;4967003;28;100900;-77
2023/04/01 05:48:32;;;;;;;17.08;9.15;;;;;;;;;;4983432;28;99167;-77
2023/04/01 05:50:59;;;;;;;11.73;7.63;;;;;;;;;;4968629;28;98245;-76
2023/04/01 05:53:25;;;;;;;14.02;9.02;;;;;;;;;;4966743;28;98472;-76
2023/04/01 05:55:52;;;;;;;12.30;7.40;;;;;;;;;;4968113;28;98790;-76
2023/04/01 05:58:18;;;;;;;17.35;8.30;;;;;;;;;;4970411;28;98317;-77
2023/04/01 06:00:46;;;;;;;15.57;8.35;;;;;;;;;;4965424;28;99649;-76
2023/04/01 06:03:15;;;;;;;18.50;8.88;;;;;;;;;;4967045;28;98266;-76
2023/04/01 06:05:43;;;;;;;15.05;8.50;;;;;;;;;;4968042;28;99144;-78
2023/04/01 06:08:14;;;;;;;17.38;8.63;;;;;;;;;;4967001;28;98909;-78
2023/04/01 06:10:57;;;;;;;13.90;8.38;;;;;;;;;;4967064;28;98378;-78
2023/04/01 06:13:51;;;;;;;17.95;9.82;;;;;;;;;;4967915;28;101368;-78
2023/04/01 06:16:26;;;;;;;13.57;9.50;;;;;;;;;;4968425;28;99358;-77
2023/04/01 06:19:13;;;;;;;18.67;10.73;;;;;;;;;;4967000;28;98225;-77
2023/04/01 06:21:47;;;;;;;16.85;10.45;;;;;;;;;;4984749;28;100873;-77
2023/04/01 06:24:32;;;;;;;13.02;8.68;;;;;;;;;;4968354;28;98213;-80
2023/04/01 06:27:17;;;;;;;12.52;8.30;;;;;;;;;;4964824;28;101092;-77
2023/04/01 06:29:51;;;;;;;12.68;8.38;;;;;;;;;;4966721;28;98988;-78
2023/04/01 06:32:17;;;;;;;;;;;;;;;;;;4967126;28;98371;-78
2023/04/01 06:35:04;;;;;;;8.65;6.28;;;;;;;;;;4966235;28;98585;-78
2023/04/01 06:37:50;;;;;;;11.27;7.72;;;;;;;;;;4966451;28;98304;-78
2023/04/01 06:40:33;;;;;;;14.02;9.40;;;;;;;;;;4983587;28;98346;-80
2023/04/01 06:43:03;;;;;;;12.45;8.77;;;;;;;;;;4966596;28;101363;-77
2023/04/01 06:46:08;;;;;;;12.52;7.85;;;;;;;;;;4970343;28;98474;-78
2023/04/01 06:49:04;;;;;;;9.00;6.60;;;;;;;;;;4967359;28;99150;-78
2023/04/01 06:52:09;;;;;;;5.40;4.28;;;;;;;;;;4969944;28;98329;-77
2023/04/01 06:55:20;;;;;;;4.25;3.70;;;;;;;;;;4969654;28;98312;-81
2023/04/01 06:58:26;;;;;;;3.33;3.05;;;;;;;;;;4970337;28;98250;-80
2023/04/01 07:01:02;;;;;;;3.58;3.28;;;;;;;;;;4969732;28;100235;-80
2023/04/01 07:03:38;;;;;;;3.88;3.60;;;;;;;;;;4971904;28;98496;-80
2023/04/01 07:06:11;;;;;;;4.53;4.15;;;;;;;;;;4972704;28;99616;-79
2023/04/01 07:08:46;;;;;;;4.65;4.25;;;;;;;;;;4970392;28;99486;-79
2023/04/01 07:11:26;;;;;;;4.93;4.53;;;;;;;;;;4981571;28;98487;-79
2023/04/01 07:14:14;;;;;;;5.05;4.60;;;;;;;;;;4978831;28;98558;-79
2023/04/01 07:16:46;;;;;;;5.22;4.82;;;;;;;;;;4997941;28;98240;-79
2023/04/01 07:19:16;;;;;;;5.65;5.25;;;;;;;;;;4980574;28;98123;-78
2023/04/01 07:22:03;;;;;;;6.95;6.25;;;;;;;;;;4972894;28;101593;-79
2023/04/01 07:24:48;;;;;;;6.82;6.05;;;;;;;;;;4971526;28;98661;-79
2023/04/01 07:27:15;;;;;;;7.85;6.80;;;;;;;;;;4970286;28;98801;-79
2023/04/01 07:29:43;;;;;;;9.60;7.40;;;;;;;;;;4970713;28;98995;-80
2023/04/01 07:32:18;;;;;;;8.43;7.15;;;;;;;;;;4969861;28;98626;-81
2023/04/01 07:34:45;;;;;;;;;;;;;;;;;;4974257;28;98947;-84
2023/04/01 07:37:32;;;;;;;9.52;8.48;;;;;;;;;;4967918;28;98290;-80
2023/04/01 07:40:10;;;;;;;10.13;8.57;;;;;;;;;;4971493;28;98233;-80
2023/04/01 07:42:54;;;;;;;10.45;8.95;;;;;;;;;;4969431;28;101272;-79
2023/04/01 07:45:30;;;;;;;9.57;8.13;;;;;;;;;;4968941;28;98321;-79
2023/04/01 07:47:58;;;;;;;12.73;9.13;;;;;;;;;;4968580;28;99873;-80
2023/04/01 07:50:27;;;;;;;13.25;10.40;;;;;;;;;;4970654;28;98957;-80
2023/04/01 07:53:10;;;;;;;13.52;9.77;;;;;;;;;;4968286;28;98243;-81
2023/04/01 07:55:50;;;;;;;10.47;8.70;;;;;;;;;;4972619;28;100297;-80
2023/04/01 07:58:30;;;;;;;11.88;9.77;;;;;;;;;;4968586;28;98666;-80
2023/04/01 08:01:19;;;;;;;11.73;10.20;;;;;;;;;;4969342;28;99437;-82
2023/04/01 08:03:52;;;;;;;13.32;9.75;;;;;;;;;;4968911;28;101343;-80
2023/04/01 08:06:32;;;;;;;14.40;10.05;;;;;;;;;;4968567;28;98541;-80
2023/04/01 08:08:58;;;;;;;13.32;10.38;;;;;;;;;;4968685;28;99430;-80
2023/04/01 08:11:57;;;;;;;19.45;10.85;;;;;;;;;;4969098;28;98438;-80
2023/04/01 08:15:01;;;;;;;17.85;10.95;;;;;;;;;;4967653;28;98409;-80
2023/04/01 08:17:49;;;;;;;16.77;10.10;;;;;;;;;;4969580;28;98116;-80
2023/04/01 08:20:19;;;;;;;18.02;10.77;;;;;;;;;;4971681;28;100953;-80
2023/04/01 08:22:51;;;;;;;18.90;11.60;;;;;;;;;;4968511;28;99402;-80
2023/04/01 08:25:26;;;;;;;14.45;9.93;;;;;;;;;;4965847;28;98826;-80
2023/04/01 08:28:03;;;;;;;18.85;11.27;;;;;;;;;;4964399;28;98495;-79
2023/04/01 08:30:37;;;;;;;10.20;7.93;;;;;;;;;;4973342;28;98545;-80
2023/04/01 08:33:09;;;;;;;19.65;11.10;;;;;;;;;;4948766;28;102233;-79
2023/04/01 08:35:42;;;;;;;19.95;8.68;;;;;;;;;;4949519;28;98259;-79
2023/04/01 08:38:12;;;;;;;13.65;9.93;;;;;;;;;;4968680;28;100038;-77
2023/04/01 08:40:42;;;;;;;17.80;9.93;;;;;;;;;;4966591;28;99933;-78
2023/04/01 08:43:28;;;;;;;17.90;11.73;;;;;;;;;;4971610;28;98356;-79
2023/04/01 08:46:14;;;;;;;11.98;10.35;;;;;;;;;;4983754;28;101620;-78
2023/04/01 08:48:47;;;;;;;15.23;11.07;;;;;;;;;;4969157;28;98374;-78
2023/04/01 08:51:16;;;;;;;16.15;10.73;;;;;;;;;;4967111;28;98551;-80
2023/04/01 08:53:58;;;;;;;15.30;10.95;;;;;;;;;;4960179;28;98716;-79
2023/04/01 08:56:29;;;;;;;11.20;9.93;;;;;;;;;;4948377;28;98346;-80
2023/04/01 08:59:18;;;;;;;11.32;10.18;;;;;;;;;;4965425;28;99203;-79
2023/04/01 09:02:04;;;;;;;11.70;9.85;;;;;;;;;;4961714;28;99679;-79
2023/04/01 09:04:52;;;;;;;11.10;9.82;;;;;;;;;;4968359;28;98789;-76
2023/04/01 09:07:37;;;;;;;10.43;9.45;;;;;;;;;;4970324;28;99362;-79
2023/04/01 09:10:08;;;;;;;9.75;8.50;;;;;;;;;;4965158;28;98661;-78
2023/04/01 09:12:45;;;;;;;11.00;8.10;;;;;;;;;;4959159;28;100307;-78
2023/04/01 09:15:20;;;;;;;9.85;8.95;;;;;;;;;;4948430;28;98846;-78
2023/04/01 09:18:07;;;;;;;9.50;8.50;;;;;;;;;;4953749;28;98184;-78
2023/04/01 09:20:52;;;;;;;8.70;7.88;;;;;;;;;;4958012;28;98453;-78
2023/04/01 09:23:37;;;;;;;7.85;6.45;;;;;;;;;;4967329;28;99936;-78
2023/04/01 09:26:04;;;;;;;9.45;8.50;;;;;;;;;;4968109;28;99688;-77
2023/04/01 09:28:39;;;;;;;10.60;8.65;;;;;;;;;;4965329;28;100860;-76
2023/04/01 09:31:09;;;;;;;9.18;8.05;;;;;;;;;;4977634;28;99931;-77
2023/04/01 09:33:52;;;;;;;11.25;8.55;;;;;;;;;;4966667;28;99641;-77
2023/04/01 09:36:45;;;;;;;9.20;8.40;;;;;;;;;;4962956;28;100861;-77
2023/04/01 09:39:26;;;;;;;10.88;9.77;;;;;;;;;;4977180;28;98068;-79
2023/04/01 09:41:59;;;;;;;8.40;7.70;;;;;;;;;;4967300;28;99867;-78
2023/04/01 09:44:36;;;;;;;10.60;9.70;;;;;;;;;;4984548;28;98986;-78
2023/04/01 09:47:30;;;;;;;10.63;9.52;;;;;;;;;;4987332;28;98277;-79
2023/04/01 09:50:14;;;;;;;9.88;9.00;;;;;;;;;;4988687;28;98329;-79
2023/04/01 09:52:47;;;;;;;10.00;9.18;;;;;;;;;;4988222;28;98889;-80
2023/04/01 09:55:23;;;;;;;12.50;9.27;;;;;;;;;;4990653;28;98226;-81
2023/04/01 09:58:08;;;;;;;10.00;9.00;;;;;;;;;;4985994;28;101609;-81
2023/04/01 10:00:53;;;;;;;;;;;;;;;;;;4987949;28;98209;-80
2023/04/01 10:03:22;;;;;;;8.02;7.22;;;;;;;;;;4987417;28;98978;-80
2023/04/01 10:05:55;;;;;;;9.85;8.95;;;;;;;;;;4985959;28;98841;-80
2023/04/01 10:08:31;;;;;;;8.55;7.85;;;;;;;;;;4987511;28;98293;-81
2023/04/01 10:11:01;;;;;;;8.50;7.82;;;;;;;;;;5003545;28;99482;-79
2023/04/01 10:13:43;;;;;;;8.32;7.55;;;;;;;;;;4986380;28;101372;-80
2023/04/01 10:16:39;;;;;;;7.60;6.87;;;;;;;;;;4990713;28;98306;-81
2023/04/01 10:19:09;;;;;;;7.75;7.00;;;;;;;;;;4986192;28;101969;-81
2023/04/01 10:21:36;;;;;;;8.60;7.70;;;;;;;;;;4987094;28;98261;-80
2023/04/01 10:24:05;;;;;;;8.35;7.65;;;;;;;;;;4986822;28;101151;-81
2023/04/01 10:26:50;;;;;;;8.27;7.57;;;;;;;;;;4985431;28;98951;-78
2023/04/01 10:29:56;;;;;;;8.48;7.45;;;;;;;;;;4987611;28;99286;-81
2023/04/01 10:32:31;;;;;;;7.88;7.18;;;;;;;;;;4987384;28;100968;-79
2023/04/01 10:35:16;;;;;;;8.15;7.35;;;;;;;;;;4960081;28;99966;-81
2023/04/01 10:38:02;;;;;;;6.10;5.45;;;;;;;;;;4966425;28;98368;-80
2023/04/01 10:40:35;;;;;;;4.75;4.38;;;;;;;;;;4966496;28;99706;-80
2023/04/01 10:43:52;;;;;;;9.45;8.00;;;;;;;;;;4952010;28;98225;-79
2023/04/01 10:46:35;;;;;;;8.23;7.43;;;;;;;;;;4965307;28;101380;-79
2023/04/01 10:49:01;;;;;;;;;;;;;;;;;;4959976;28;100840;-81
2023/04/01 10:51:47;;;;;;;7.15;5.68;;;;;;;;;;4978615;28;98260;-80
2023/04/01 10:54:36;;;;;;;5.53;5.03;;;;;;;;;;4966472;28;99628;-83
2023/04/01 10:57:25;;;;;;;6.03;5.53;;;;;;;;;;4948989;28;99847;-82
2023/04/01 11:00:55;;;;;;;5.70;5.15;;;;;;;;;;4951814;28;98205;-79
2023/04/01 11:04:09;;;;;;;4.18;3.88;;;;;;;;;;4946791;28;98201;-82
2023/04/01 11:07:03;;;;;;;3.80;3.50;;;;;;;;;;4975936;28;98935;-81
2023/04/01 11:09:41;;;;;;;3.42;3.22;;;;;;;;;;4959121;28;99544;-83
2023/04/01 11:12:13;;;;;;;4.05;2.72;;;;;;;;;;4975556;28;100098;-83
2023/04/01 11:14:47;;;;;;;3.13;2.90;;;;;;;;;;4961141;28;99416;-82
2023/04/01 11:17:17;;;;;;;2.97;2.83;;;;;;;;;;4963200;28;99761;-79
2023/04/01 11:19:49;;;;;;;2.90;2.80;;;;;;;;;;4964643;28;100676;-79
2023/04/01 11:22:19;;;;;;;;;;;;;;;;;;4973241;28;99872;-81
2023/04/01 11:24:59;;;;;;;1.50;1.40;;;;;;;;;;4975904;28;99334;-79
2023/04/01 11:27:38;;;;;;;0.88;0.88;;;;;;;;;;4965552;28;101859;-81
2023/04/01 11:30:05;;;;;;;1.20;1.20;;;;;;;;;;4967604;28;98791;-80
2023/04/01 11:32:51;;;;;;;1.00;1.00;;;;;;;;;;4964949;28;99030;-80
2023/04/01 11:35:42;;;;;;;1.30;1.30;;;;;;;;;;4960083;28;99206;-80
2023/04/01 11:38:19;;;;;;;1.25;1.25;;;;;;;;;;4982557;28;100665;-78
2023/04/01 11:40:58;;;;;;;1.58;1.58;;;;;;;;;;4947717;28;98890;-80
2023/04/01 11:44:11;;;;;;;2.00;1.90;;;;;;;;;;4928146;28;98242;-80
2023/04/01 11:46:56;;;;;;;2.15;2.05;;;;;;;;;;4948890;28;100446;-79
2023/04/01 11:49:22;;;;;;;2.17;2.08;;;;;;;;;;4945118;28;100065;-79
2023/04/01 11:52:15;;;;;;;6.13;3.53;;;;;;;;;;4962534;28;98277;-78
2023/04/01 11:54:53;;;;;;;2.95;2.28;;;;;;;;;;4980457;28;99606;-78
2023/04/01 11:57:21;;;;;;;2.22;2.13;;;;;;;;;;4966402;28;98350;-80
2023/04/01 12:00:07;;;;;;;6.35;4.03;;;;;;;;;;4963269;28;100034;-81
2023/04/01 12:02:58;;;;;;;3.55;3.25;;;;;;;;;;4958749;28;98499;-79
2023/04/01 12:05:36;;;;;;;5.25;4.85;;;;;;;;;;4954897;28;98511;-80
2023/04/01 12:08:06;;;;;;;5.85;5.45;;;;;;;;;;4966511;28;99449;-80
2023/04/01 12:10:44;;;;;;;6.75;6.35;;;;;;;;;;4952516;28;98810;-80
2023/04/01 12:13:20;;;;;;;6.82;6.40;;;;;;;;;;4962408;28;98732;-80
2023/04/01 12:15:48;;;;;;;8.55;7.18;;;;;;;;;;4956388;28;99848;-81
2023/04/01 12:18:27;;;;;;;7.35;6.85;;;;;;;;;;4959388;28;99286;-79
2023/04/01 12:20:54;;;;;;;8.73;8.13;;;;;;;;;;4953120;28;99584;-81
2023/04/01 12:23:42;;;;;;;9.30;8.50;;;;;;;;;;4968348;28;100022;-81
2023/04/01 12:26:08;;;;;;;9.23;8.40;;;;;;;;;;4950191;28;98265;-80
2023/04/01 12:28:49;;;;;;;6.90;6.28;;;;;;;;;;4950295;28;98524;-80
2023/04/01 12:31:19;;;;;;;10.70;9.70;;;;;;;;;;4951825;28;100249;-78
2023/04/01 12:33:48;;;;;;;12.95;11.55;;;;;;;;;;4964220;28;98336;-81
2023/04/01 12:36:26;;;;;;;11.85;10.65;;;;;;;;;;4969540;28;98972;-83
2023/04/01 12:38:52;;;;;;;15.52;12.07;;;;;;;;;;4975618;28;99212;-80
2023/04/01 12:41:37;;;;;;;15.10;12.70;;;;;;;;;;4966304;28;99771;-83
2023/04/01 12:44:23;;;;;;;14.75;12.30;;;;;;;;;;4950272;28;99032;-82
2023/04/01 12:47:00;;;;;;;14.40;12.90;;;;;;;;;;4951979;28;98405;-80
2023/04/01 12:49:33;;;;;;;18.00;11.88;;;;;;;;;;4951478;28;99442;-83
2023/04/01 12:52:21;;;;;;;12.52;11.23;;;;;;;;;;4951732;28;99443;-81
2023/04/01 12:55:05;;;;;;;13.82;11.23;;;;;;;;;;4954587;28;98362;-80
2023/04/01 12:57:41;;;;;;;15.43;12.27;;;;;;;;;;4967648;28;99526;-81
2023/04/01 13:00:11;;;;;;;12.60;11.23;;;;;;;;;;4964438;28;99941;-82
2023/04/01 13:03:00;;;;;;;12.95;11.48;;;;;;;;;;4953881;28;98522;-81
2023/04/01 13:05:32;;;;;;;14.70;11.93;;;;;;;;;;4955891;28;99812;-81
2023/04/01 13:07:59;;;;;;;;;;;;;;;;;;4960703;28;98265;-81
2023/04/01 13:10:27;;;;;;;8.77;7.88;;;;;;;;;;4972964;28;98093;-79
2023/04/01 13:13:12;;;;;;;7.90;7.28;;;;;;;;;;4960729;28;99924;-79
2023/04/01 13:15:57;;;;;;;10.07;8.23;;;;;;;;;;4967439;28;98254;-81
2023/04/01 13:18:26;;;;;;;10.10;8.73;;;;;;;;;;4976824;28;98681;-80
2023/04/01 13:21:05;;;;;;;8.80;7.60;;;;;;;;;;4965246;28;98172;-84
2023/04/01 13:23:41;;;;;;;10.90;8.98;;;;;;;;;;4964945;28;98665;-81
2023/04/01 13:26:18;;;;;;;8.57;7.72;;;;;;;;;;4963813;28;99795;-81
2023/04/01 13:29:00;;;;;;;10.50;8.90;;;;;;;;;;4971594;28;98272;-81
2023/04/01 13:31:26;;;;;;;9.02;7.70;;;;;;;;;;4960246;28;98934;-80
2023/04/01 13:33:56;;;;;;;9.20;6.70;;;;;;;;;;4964846;28;99935;-83
2023/04/01 13:36:36;;;;;;;8.88;7.35;;;;;;;;;;4956931;28;98684;-80
2023/04/01 13:39:09;;;;;;;8.27;6.43;;;;;;;;;;4969127;28;99427;-83
2023/04/01 13:41:47;;;;;;;7.15;6.45;;;;;;;;;;4969055;28;100030;-83
2023/04/01 13:44:14;;;;;;;6.07;5.60;;;;;;;;;;4953217;28;98338;-84
2023/04/01 13:47:03;;;;;;;7.35;6.47;;;;;;;;;;4967827;28;99399;-82
2023/04/01 13:49:46;;;;;;;6.65;6.03;;;;;;;;;;4969607;28;99003;-81
2023/04/01 13:52:27;;;;;;;7.38;6.68;;;;;;;;;;4959399;28;98783;-80
2023/04/01 13:55:16;;;;;;;9.80;5.50;;;;;;;;;;4968717;28;100086;-83
2023/04/01 13:57:54;;;;;;;9.27;6.80;;;;;;;;;;4967049;28;99068;-81
2023/04/01 14:00:33;;;;;;;5.63;5.15;;;;;;;;;;4958570;28;98455;-82
2023/04/01 14:03:00;;;;;;;4.88;4.38;;;;;;;;;;4948287;28;100104;-77
2023/04/01 14:05:32;;;;;;;6.95;5.78;;;;;;;;;;4948383;28;98241;-77
2023/04/01 14:08:09;;;;;;;;;;;;;;;;;;4949784;28;99362;-76
2023/04/01 14:10:53;;;;;;;6.90;5.38;;;;;;;;;;4958570;28;130108;-77
2023/04/01 14:13:34;;;;;;;10.27;6.80;;;;;;;;;;4959567;28;98284;-77
2023/04/01 14:16:12;;;;;;;7.83;7.13;;;;;;;;;;4961167;28;100185;-75
2023/04/01 14:18:45;;;;;;;5.93;5.47;;;;;;;;;;4957838;28;100121;-76
2023/04/01 14:21:18;;;;;;;9.35;6.55;;;;;;;;;;4965876;28;98650;-77
2023/04/01 14:24:03;;;;;;;8.95;7.47;;;;;;;;;;4961097;28;98930;-76
2023/04/01 14:26:49;;;;;;;7.22;6.65;;;;;;;;;;4961110;28;98276;-76
2023/04/01 14:29:22;;;;;;;8.10;7.05;;;;;;;;;;4979524;28;98705;-76
2023/04/01 14:31:52;;;;;;;12.25;8.85;;;;;;;;;;4958202;28;100146;-75
2023/04/01 14:34:42;;;;;;;10.18;8.77;;;;;;;;;;4955952;28;98398;-75
2023/04/01 14:37:14;;;;;;;6.97;6.30;;;;;;;;;;4955630;28;99182;-80
2023/04/01 14:39:50;;;;;;;6.75;5.72;;;;;;;;;;4960631;28;98292;-77
2023/04/01 14:42:42;;;;;;;6.13;5.68;;;;;;;;;;4953722;28;99444;-76
2023/04/01 14:45:27;;;;;;;6.85;6.35;;;;;;;;;;4950265;28;99952;-78
2023/04/01 14:48:05;;;;;;;7.82;7.03;;;;;;;;;;4962044;28;98559;-77
2023/04/01 14:50:46;;;;;;;7.45;6.75;;;;;;;;;;4958201;28;98987;-76
2023/04/01 14:53:24;;;;;;;7.95;6.15;;;;;;;;;;4952797;28;99925;-76
2023/04/01 14:55:57;;;;;;;6.00;5.50;;;;;;;;;;4956030;28;98205;-76
2023/04/01 14:58:26;;;;;;;8.63;7.82;;;;;;;;;;4965050;28;99987;-77
2023/04/01 15:01:19;;;;;;;7.60;6.90;;;;;;;;;;4960083;28;98309;-77
2023/04/01 15:03:55;;;;;;;8.00;7.30;;;;;;;;;;4953853;28;98472;-76
2023/04/01 15:06:40;;;;;;;6.10;5.60;;;;;;;;;;4949325;28;100598;-77
2023/04/01 15:09:14;;;;;;;6.50;5.93;;;;;;;;;;4968972;28;98320;-76
2023/04/01 15:11:40;;;;;;;7.05;6.57;;;;;;;;;;4970701;28;99984;-77
2023/04/01 15:14:18;;;;;;;5.57;5.15;;;;;;;;;;4969935;28;98948;-77
2023/04/01 15:17:07;;;;;;;6.50;5.82;;;;;;;;;;4970980;28;98669;-77